Time;durP1;ratioP1;P1;durP2;ratioP2;P2;SDS_P1;SDS_P2;PMS_P1;PMS_P2;Temp;Humidity;BMP_temperature;BMP_pressure;BME280_temperature;BME280_humidity;BME280_pressure;Samples;Min_cycle;Max_cycle;Signal;HPM_P1;HPM_P2
2021/01/27 00:00:32;;;;;;;10.95;8.73;;;;;;;-2.50;74.90;97842.56;1828698;78;20982;-63
2021/01/27 00:03:01;;;;;;;9.05;8.03;;;;;;;-2.52;75.11;97840.39;1828771;78;21002;-63
2021/01/27 00:05:34;;;;;;;10.78;7.62;;;;;;;-2.50;75.18;97841.24;1828644;78;20919;-62
2021/01/27 00:08:01;;;;;;;10.35;8.63;;;;;;;-2.49;75.29;97845.15;1828976;78;20987;-62
2021/01/27 00:10:30;;;;;;;11.45;7.83;;;;;;;-2.46;75.44;97840.24;1828568;78;20975;-63
2021/01/27 00:12:58;;;;;;;10.23;9.00;;;;;;;-2.43;75.64;97848.05;1828784;78;20912;-63
2021/01/27 00:15:35;;;;;;;10.00;7.78;;;;;;;-2.37;75.87;97851.84;1828687;78;21359;-62
2021/01/27 00:18:05;;;;;;;11.73;9.63;;;;;;;-2.32;76.16;97843.37;1828760;78;21353;-62
2021/01/27 00:20:32;;;;;;;10.18;7.67;;;;;;;-2.24;76.37;97844.48;1827271;78;20974;-63
2021/01/27 00:22:59;;;;;;;10.65;9.35;;;;;;;-2.16;76.55;97845.59;1814768;79;21019;-63
2021/01/27 00:25:32;;;;;;;10.55;7.70;;;;;;;-2.10;76.47;97842.80;1814854;79;20912;-62
2021/01/27 00:28:00;;;;;;;;;;;;;;;-2.03;76.41;97834.70;1817663;79;22231;-63
2021/01/27 00:30:31;;;;;;;10.98;8.50;;;;;;;-1.97;76.08;97834.98;1814800;79;20129;-62
2021/01/27 00:32:59;;;;;;;12.50;8.53;;;;;;;-1.94;75.88;97838.86;1814797;79;21027;-63
2021/01/27 00:35:33;;;;;;;13.35;9.23;;;;;;;-1.88;75.53;97840.43;1814865;79;21358;-63
2021/01/27 00:38:11;;;;;;;11.38;8.93;;;;;;;-1.84;75.32;97838.98;1814808;78;21460;-63
2021/01/27 00:40:40;;;;;;;15.40;10.20;;;;;;;-1.77;75.18;97838.81;1814820;79;21300;-64
2021/01/27 00:43:07;;;;;;;11.55;9.15;;;;;;;-1.72;75.34;97836.90;1814825;79;20913;-62
2021/01/27 00:45:35;;;;;;;11.80;10.25;;;;;;;-1.67;75.40;97844.20;1814804;79;20905;-63
2021/01/27 00:48:05;;;;;;;12.25;9.28;;;;;;;-1.63;75.34;97837.95;1814777;79;20924;-63
2021/01/27 00:50:34;;;;;;;11.65;10.00;;;;;;;-1.58;75.20;97837.82;1814811;78;21394;-63
2021/01/27 00:53:03;;;;;;;13.70;9.95;;;;;;;-1.56;75.02;97838.63;1814956;79;21203;-63
2021/01/27 00:55:31;;;;;;;14.75;10.25;;;;;;;-1.53;74.75;97832.84;1814881;79;21421;-63
2021/01/27 00:58:00;;;;;;;14.18;9.70;;;;;;;-1.49;74.40;97833.13;1814700;79;21035;-63
2021/01/27 01:00:32;;;;;;;17.48;11.63;;;;;;;-1.49;74.22;97826.55;1814779;79;20873;-62
2021/01/27 01:03:01;;;;;;;13.88;10.95;;;;;;;-1.47;73.88;97834.41;1815019;79;20983;-62
2021/01/27 01:05:34;;;;;;;14.50;10.75;;;;;;;-1.46;73.76;97831.73;1814821;79;21363;-62
2021/01/27 01:08:04;;;;;;;12.07;9.88;;;;;;;-1.46;73.73;97835.67;1814725;79;20991;-62
2021/01/27 01:10:40;;;;;;;12.25;9.95;;;;;;;-1.44;73.78;97832.14;1814774;79;20928;-63
2021/01/27 01:13:12;;;;;;;13.38;9.48;;;;;;;-1.40;73.79;97836.39;1814838;78;20869;-63
2021/01/27 01:15:39;;;;;;;12.43;9.90;;;;;;;-1.40;73.74;97834.64;1814821;79;21008;-64
2021/01/27 01:18:06;;;;;;;12.50;10.28;;;;;;;-1.38;73.62;97835.91;1814781;79;21358;-63
2021/01/27 01:20:35;;;;;;;13.78;10.88;;;;;;;-1.35;73.61;97826.60;1814863;79;20928;-63
2021/01/27 01:23:03;;;;;;;12.43;9.93;;;;;;;-1.33;73.64;97828.73;1814202;79;20996;-62
2021/01/27 01:25:32;;;;;;;12.18;9.70;;;;;;;-1.31;73.61;97825.58;1814200;79;20963;-62
2021/01/27 01:28:00;;;;;;;12.43;9.75;;;;;;;-1.30;73.60;97823.36;1814242;79;21457;-62
2021/01/27 01:30:36;;;;;;;11.40;9.60;;;;;;;-1.28;73.41;97821.53;1814229;79;21267;-62
2021/01/27 01:33:20;;;;;;;17.42;10.68;;;;;;;-1.27;73.37;97821.95;1814072;79;20920;-62
2021/01/27 01:35:49;;;;;;;10.85;8.63;;;;;;;-1.25;73.42;97821.91;1814570;79;20912;-63
2021/01/27 01:38:16;;;;;;;13.00;9.73;;;;;;;-1.25;73.42;97818.80;1814411;79;20904;-63
2021/01/27 01:40:52;;;;;;;12.25;9.65;;;;;;;-1.24;73.27;97813.95;1814348;79;20912;-63
2021/01/27 01:43:32;;;;;;;12.98;10.28;;;;;;;-1.23;73.12;97813.05;1814283;79;22520;-62
2021/01/27 01:46:12;;;;;;;15.03;10.48;;;;;;;-1.22;72.87;97809.48;1814451;79;21445;-63
2021/01/27 01:48:52;;;;;;;10.93;8.80;;;;;;;-1.22;72.95;97809.48;1814455;79;21433;-63
2021/01/27 01:51:49;;;;;;;11.40;9.75;;;;;;;-1.21;72.90;97817.81;1814394;79;21027;-63
2021/01/27 01:54:41;;;;;;;12.82;9.98;;;;;;;-1.24;72.65;97816.59;1814549;79;20912;-62
2021/01/27 01:57:15;;;;;;;13.95;10.13;;;;;;;-1.25;72.74;97810.05;1814360;79;21185;-61
2021/01/27 02:00:03;;;;;;;11.55;9.63;;;;;;;-1.25;72.73;97808.27;1814239;79;20964;-62
2021/01/27 02:02:34;;;;;;;11.33;8.58;;;;;;;-1.25;72.80;97814.85;1813077;79;20979;-62
2021/01/27 02:05:16;;;;;;;11.88;9.75;;;;;;;-1.26;72.73;97814.47;1814447;79;20968;-62
2021/01/27 02:07:43;;;;;;;11.68;9.90;;;;;;;-1.27;72.80;97812.73;1814479;79;20964;-63
2021/01/27 02:10:13;;;;;;;13.28;10.58;;;;;;;-1.28;72.73;97814.52;1781113;79;21190;-61
2021/01/27 02:13:24;;;;;;;13.03;10.48;;;;;;;-1.29;72.64;97804.02;1814238;79;20972;-62
2021/01/27 02:16:10;;;;;;;13.85;10.58;;;;;;;-1.30;72.54;97811.51;1814502;78;21417;-62
2021/01/27 02:19:01;;;;;;;12.90;10.53;;;;;;;-1.33;72.42;97815.55;1814299;79;20924;-63
2021/01/27 02:21:57;;;;;;;16.80;9.78;;;;;;;-1.38;72.46;97816.16;1812401;77;20964;-63
2021/01/27 02:24:51;;;;;;;17.02;11.05;;;;;;;-1.43;72.43;97810.14;1805841;79;21439;-62
2021/01/27 02:27:34;;;;;;;13.35;9.43;;;;;;;-1.50;72.41;97814.31;1805742;79;21047;-62
2021/01/27 02:30:40;;;;;;;13.40;9.90;;;;;;;-1.56;72.50;97814.49;1805827;79;20924;-63
2021/01/27 02:33:40;;;;;;;13.93;10.50;;;;;;;-1.61;72.54;97812.89;1805771;79;20908;-62
2021/01/27 02:36:28;;;;;;;17.12;10.80;;;;;;;-1.68;72.45;97814.39;1805536;79;20916;-64
2021/01/27 02:39:19;;;;;;;15.25;9.95;;;;;;;-1.74;72.55;97809.77;1781454;79;21315;-64
2021/01/27 02:42:07;;;;;;;13.95;10.58;;;;;;;-1.79;72.57;97812.53;1805671;79;20925;-63
2021/01/27 02:44:40;;;;;;;14.33;10.00;;;;;;;-1.83;72.68;97817.03;1805837;79;20929;-62
2021/01/27 02:47:11;;;;;;;;;;;;;;;-1.86;72.83;97821.06;1808483;79;20897;-62
2021/01/27 02:49:51;;;;;;;17.67;10.13;;;;;;;-1.87;72.81;97821.11;1805773;79;20129;-62
2021/01/27 02:52:21;;;;;;;12.50;9.93;;;;;;;-1.89;72.91;97817.20;1805836;79;21380;-62
2021/01/27 02:55:07;;;;;;;14.13;10.32;;;;;;;-1.87;72.91;97819.33;1781493;79;21015;-61
2021/01/27 02:57:56;;;;;;;14.43;10.43;;;;;;;-1.89;72.90;97815.89;1805803;79;20932;-62
2021/01/27 03:00:27;;;;;;;13.85;9.80;;;;;;;-1.89;72.92;97813.25;1805771;79;21339;-62
2021/01/27 03:03:06;;;;;;;16.57;10.60;;;;;;;-1.91;72.85;97807.15;1805815;79;20916;-62
2021/01/27 03:05:41;;;;;;;14.28;9.78;;;;;;;-1.90;72.82;97802.77;1805137;79;21212;-62
2021/01/27 03:08:27;;;;;;;13.83;9.68;;;;;;;-1.93;72.69;97793.18;1805776;79;21346;-62
2021/01/27 03:11:20;;;;;;;13.83;10.32;;;;;;;-1.95;72.68;97796.32;1805715;79;20916;-62
2021/01/27 03:13:47;;;;;;;14.90;10.55;;;;;;;-1.96;72.67;97798.53;1805756;79;20909;-61
2021/01/27 03:16:26;;;;;;;20.90;11.85;;;;;;;-2.00;72.64;97803.49;1805857;79;20960;-61
2021/01/27 03:19:03;;;;;;;14.85;11.03;;;;;;;-2.03;72.64;97803.58;1805795;79;21375;-63
2021/01/27 03:21:36;;;;;;;14.58;10.15;;;;;;;-2.07;72.70;97804.56;1769668;80;20963;-61
2021/01/27 03:24:08;;;;;;;12.28;8.13;;;;;;;-2.13;72.72;97793.73;1770151;81;21543;-62
2021/01/27 03:26:50;;;;;;;13.43;9.53;;;;;;;-2.19;72.79;97798.73;1769925;81;20948;-63
2021/01/27 03:29:35;;;;;;;16.17;10.80;;;;;;;-2.22;72.88;97799.28;1769846;81;20886;-62
2021/01/27 03:32:08;;;;;;;13.95;10.10;;;;;;;-2.28;72.91;97798.98;1769939;81;21443;-62
2021/01/27 03:34:39;;;;;;;14.35;9.90;;;;;;;-2.34;72.96;97795.20;1769904;81;21357;-63
2021/01/27 03:37:18;;;;;;;12.15;10.38;;;;;;;-2.38;72.97;97807.59;1737865;82;21390;-62
2021/01/27 03:39:48;;;;;;;13.50;10.30;;;;;;;-2.42;73.10;97809.02;1769862;81;20907;-61
2021/01/27 03:42:27;;;;;;;15.72;10.65;;;;;;;-2.47;73.18;97810.46;1770012;81;21349;-63
2021/01/27 03:44:59;;;;;;;12.25;10.23;;;;;;;-2.51;73.25;97807.95;1769527;81;21349;-62
2021/01/27 03:47:35;;;;;;;16.97;9.43;;;;;;;-2.53;73.23;97813.71;1769967;81;21377;-63
2021/01/27 03:50:17;;;;;;;14.28;10.85;;;;;;;-2.57;73.29;97817.73;1750766;81;20935;-61
2021/01/27 03:52:56;;;;;;;10.45;8.70;;;;;;;-2.58;73.37;97826.97;1769910;81;20912;-62
2021/01/27 03:55:42;;;;;;;12.53;9.63;;;;;;;-2.61;73.44;97833.16;1737773;82;20999;-61
2021/01/27 03:58:25;;;;;;;12.60;10.43;;;;;;;-2.63;73.50;97836.75;1769877;80;21361;-61
2021/01/27 04:01:03;;;;;;;12.28;9.45;;;;;;;-2.66;73.67;97829.80;1769795;81;21003;-61
2021/01/27 04:03:32;;;;;;;12.18;9.15;;;;;;;-2.67;73.95;97822.80;1737813;82;21012;-62
2021/01/27 04:06:00;;;;;;;12.28;9.98;;;;;;;-2.64;74.28;97822.72;1769790;80;21054;-61
2021/01/27 04:08:27;;;;;;;10.95;8.20;;;;;;;-2.60;74.41;97816.92;1769875;81;20891;-61
2021/01/27 04:10:55;;;;;;;12.45;9.45;;;;;;;-2.56;74.49;97818.59;1739352;82;21429;-61
2021/01/27 04:13:24;;;;;;;13.10;8.58;;;;;;;-2.51;74.43;97825.05;1769807;81;21029;-61
2021/01/27 04:15:52;;;;;;;12.80;9.30;;;;;;;-2.46;74.37;97828.41;1769874;81;20999;-62
2021/01/27 04:18:20;;;;;;;13.95;9.78;;;;;;;-2.40;74.32;97825.19;1769836;81;21033;-63
2021/01/27 04:20:48;;;;;;;13.35;9.73;;;;;;;-2.34;74.33;97828.55;1769743;81;20939;-62
2021/01/27 04:23:16;;;;;;;13.65;8.95;;;;;;;-2.29;74.38;97822.24;1769765;80;21257;-62
2021/01/27 04:25:44;;;;;;;13.43;10.38;;;;;;;-2.24;74.30;97828.27;1769799;81;20893;-62
2021/01/27 04:28:11;;;;;;;12.93;9.53;;;;;;;-2.17;74.24;97820.20;1769892;81;21003;-62
2021/01/27 04:30:39;;;;;;;11.68;9.38;;;;;;;-2.14;74.18;97813.52;1769714;81;20868;-62
2021/01/27 04:33:09;;;;;;;15.18;11.18;;;;;;;-2.09;74.03;97818.22;1769880;81;20930;-62
2021/01/27 04:35:37;;;;;;;12.58;9.80;;;;;;;-2.04;74.08;97818.95;1769866;81;21368;-62
2021/01/27 04:38:05;;;;;;;12.13;9.88;;;;;;;-2.01;74.04;97808.34;1769741;81;20998;-62
2021/01/27 04:40:42;;;;;;;9.73;7.42;;;;;;;-1.97;73.95;97807.36;1769783;81;20916;-62
2021/01/27 04:43:27;;;;;;;16.25;10.13;;;;;;;-1.94;73.91;97809.90;1769887;81;21009;-62
2021/01/27 04:46:04;;;;;;;14.05;9.55;;;;;;;-1.92;73.86;97800.18;1739297;82;20916;-63
2021/01/27 04:49:21;;;;;;;15.32;11.57;;;;;;;-1.89;73.76;97799.20;1769893;81;21210;-62
2021/01/27 04:52:00;;;;;;;10.72;9.38;;;;;;;-1.89;73.40;97791.31;1769798;81;21059;-62
2021/01/27 04:54:54;;;;;;;12.63;9.58;;;;;;;-1.89;73.32;97796.14;1769819;81;20949;-62
2021/01/27 04:57:37;;;;;;;11.22;9.55;;;;;;;-1.91;73.38;97801.88;1739295;82;21018;-63
2021/01/27 05:00:19;;;;;;;10.85;8.33;;;;;;;-1.94;73.45;97802.00;1739214;82;20919;-62
2021/01/27 05:03:23;;;;;;;9.90;7.22;;;;;;;-1.94;73.44;97804.63;1769997;81;21444;-63
2021/01/27 05:05:55;;;;;;;11.50;9.83;;;;;;;-1.95;73.38;97801.58;1770004;81;21022;-62
2021/01/27 05:08:33;;;;;;;15.30;10.15;;;;;;;-1.97;73.35;97797.26;1746231;81;20972;-62
2021/01/27 05:11:04;;;;;;;13.83;9.80;;;;;;;-2.01;73.30;97791.23;1716576;81;21043;-62
2021/01/27 05:13:37;;;;;;;14.35;10.00;;;;;;;-2.06;73.32;97792.67;1769849;81;20991;-62
2021/01/27 05:16:10;;;;;;;14.87;9.85;;;;;;;-2.08;73.28;97798.87;1770056;81;22273;-62
2021/01/27 05:18:41;;;;;;;13.95;9.98;;;;;;;-2.15;73.30;97799.51;1714265;82;40052;-63
2021/01/27 05:21:34;;;;;;;12.03;8.70;;;;;;;-2.19;73.32;97806.63;1769805;81;20920;-62
2021/01/27 05:24:06;;;;;;;11.05;8.23;;;;;;;-2.25;73.41;97810.74;1760839;80;20984;-63
2021/01/27 05:26:44;;;;;;;11.70;8.73;;;;;;;-2.30;73.50;97811.33;1760050;81;20923;-63
2021/01/27 05:29:23;;;;;;;14.53;10.58;;;;;;;-2.33;73.57;97811.41;1759444;81;21377;-63
2021/01/27 05:32:20;;;;;;;14.07;10.00;;;;;;;-2.36;73.57;97811.49;1760039;81;20991;-62
2021/01/27 05:34:55;;;;;;;14.10;10.35;;;;;;;-2.37;73.65;97813.70;1760106;81;21042;-63
2021/01/27 05:37:33;;;;;;;11.65;8.63;;;;;;;-2.38;73.81;97814.59;1759827;81;20955;-63
2021/01/27 05:40:18;;;;;;;13.83;11.08;;;;;;;-2.40;73.83;97811.16;1759976;81;20952;-63
2021/01/27 05:42:45;;;;;;;12.47;9.30;;;;;;;-2.39;73.85;97816.38;1760078;81;21229;-62
2021/01/27 05:45:48;;;;;;;10.43;7.83;;;;;;;-2.40;73.76;97809.84;1759950;81;20970;-62
2021/01/27 05:48:32;;;;;;;12.05;8.88;;;;;;;-2.41;73.69;97802.41;1760085;81;20892;-63
2021/01/27 05:51:11;;;;;;;11.78;9.68;;;;;;;-2.43;73.66;97790.19;1759953;80;20999;-64
2021/01/27 05:53:39;;;;;;;11.55;9.68;;;;;;;-2.46;73.60;97793.79;1760086;81;20935;-62
2021/01/27 05:56:17;;;;;;;15.13;9.78;;;;;;;-2.45;73.61;97784.13;1760040;81;21363;-63
2021/01/27 05:59:06;;;;;;;15.98;10.38;;;;;;;-2.49;73.56;97783.78;1759943;81;20943;-63
2021/01/27 06:01:42;;;;;;;11.93;10.38;;;;;;;-2.49;73.48;97787.73;1760052;81;20928;-62
2021/01/27 06:04:21;;;;;;;12.73;10.05;;;;;;;-2.49;73.47;97787.73;1759980;81;21059;-63
2021/01/27 06:06:54;;;;;;;11.08;8.23;;;;;;;-2.49;73.55;97796.93;1760010;81;20955;-62
2021/01/27 06:09:43;;;;;;;12.60;9.90;;;;;;;-2.51;73.62;97797.43;1760097;81;21386;-64
2021/01/27 06:12:22;;;;;;;11.12;8.50;;;;;;;-2.51;73.69;97800.06;1759957;81;20955;-63
2021/01/27 06:15:06;;;;;;;11.95;9.90;;;;;;;-2.51;73.67;97814.52;1760075;80;20888;-63
2021/01/27 06:17:48;;;;;;;9.65;8.43;;;;;;;-2.50;73.72;97801.80;1759984;81;20936;-62
2021/01/27 06:20:33;;;;;;;11.70;10.00;;;;;;;-2.48;73.74;97807.41;1760208;81;20955;-63
2021/01/27 06:23:28;;;;;;;10.88;9.18;;;;;;;-2.47;73.76;97811.77;1763828;80;22252;-63
2021/01/27 06:26:22;;;;;;;10.53;7.58;;;;;;;-2.44;73.73;97808.21;1739184;82;20971;-62
2021/01/27 06:29:21;;;;;;;12.85;8.88;;;;;;;-2.44;73.54;97810.38;1739395;82;21019;-63
2021/01/27 06:32:16;;;;;;;10.03;8.03;;;;;;;-2.43;73.53;97816.06;1769880;81;21448;-63
2021/01/27 06:35:05;;;;;;;11.18;8.45;;;;;;;-2.40;73.56;97812.03;1770102;81;20872;-63
2021/01/27 06:38:04;;;;;;;9.65;7.30;;;;;;;-2.34;73.63;97821.52;1769945;81;21391;-63
2021/01/27 06:40:55;;;;;;;12.00;10.08;;;;;;;-2.31;73.52;97817.48;1769276;81;20987;-64
2021/01/27 06:43:47;;;;;;;10.28;8.05;;;;;;;-2.27;73.34;97819.57;1769832;81;20971;-64
2021/01/27 06:46:43;;;;;;;11.05;8.40;;;;;;;-2.23;73.19;97805.44;1769977;81;21303;-64
2021/01/27 06:49:28;;;;;;;12.85;8.08;;;;;;;-2.20;73.01;97806.21;1769822;81;20985;-64
2021/01/27 06:52:25;;;;;;;9.08;7.65;;;;;;;-2.16;72.93;97811.39;1739466;82;21204;-65
2021/01/27 06:55:22;;;;;;;11.73;6.92;;;;;;;-2.15;72.81;97799.97;1769862;81;21554;-63
2021/01/27 06:58:07;;;;;;;12.18;9.13;;;;;;;-2.12;72.79;97811.27;1760217;81;21054;-65
2021/01/27 07:00:46;;;;;;;12.65;8.88;;;;;;;-2.06;72.82;97816.82;1769177;81;21006;-62
2021/01/27 07:03:37;;;;;;;13.32;7.85;;;;;;;-2.01;72.78;97817.55;1769546;81;20916;-63
2021/01/27 07:06:33;;;;;;;10.82;8.10;;;;;;;-1.98;72.37;97819.24;1769895;81;21422;-63
2021/01/27 07:09:23;;;;;;;8.70;7.17;;;;;;;-1.96;72.30;97819.59;1769838;81;21348;-62
2021/01/27 07:12:05;;;;;;;12.60;8.50;;;;;;;-1.93;72.19;97824.77;1715509;81;21046;-64
2021/01/27 07:14:59;;;;;;;9.10;7.60;;;;;;;-1.88;72.29;97824.17;1739257;82;20963;-64
2021/01/27 07:17:59;;;;;;;13.10;7.80;;;;;;;-1.85;72.23;97825.41;1767821;81;20928;-61
2021/01/27 07:20:39;;;;;;;9.48;7.15;;;;;;;-1.79;71.78;97828.79;1705737;81;21234;-61
2021/01/27 07:23:34;;;;;;;8.55;6.65;;;;;;;-1.74;71.85;97829.51;1744012;81;20959;-62
2021/01/27 07:26:07;;;;;;;9.10;7.85;;;;;;;-1.69;71.52;97835.50;1789566;80;21376;-63
2021/01/27 07:29:03;;;;;;;12.45;9.80;;;;;;;-1.66;71.41;97832.77;1789581;80;20937;-63
2021/01/27 07:31:37;;;;;;;10.58;8.15;;;;;;;-1.62;71.04;97838.80;1789421;80;20974;-63
2021/01/27 07:34:13;;;;;;;8.33;7.35;;;;;;;-1.61;70.67;97832.64;1755092;81;21396;-64
2021/01/27 07:37:11;;;;;;;8.55;7.12;;;;;;;-1.60;70.26;97837.02;1789412;80;21012;-62
2021/01/27 07:39:51;;;;;;;8.80;6.62;;;;;;;-1.59;70.28;97833.02;1789350;80;20982;-63
2021/01/27 07:42:36;;;;;;;11.15;7.08;;;;;;;-1.55;70.17;97838.58;1789235;80;21032;-63
2021/01/27 07:45:16;;;;;;;9.75;6.87;;;;;;;-1.49;70.26;97829.19;1788386;80;21022;-64
2021/01/27 10:42:22;;;;;;;7.20;6.00;;;;;;;1.10;64.95;97780.04;1789236;79;28398;-76
2021/01/27 10:45:25;;;;;;;7.25;6.55;;;;;;;1.19;64.67;97783.63;1717348;83;20904;-79
2021/01/27 10:48:09;;;;;;;7.45;6.65;;;;;;;1.25;64.34;97776.77;1702624;83;21282;-75
2021/01/27 10:50:49;;;;;;;7.55;6.25;;;;;;;1.29;64.12;97773.05;1747580;82;20975;-73
2021/01/27 10:53:19;;;;;;;7.22;6.20;;;;;;;1.34;63.60;97776.83;1725656;83;21623;-74
2021/01/27 10:55:49;;;;;;;7.05;6.35;;;;;;;1.32;63.82;97768.95;1747909;82;20920;-78
2021/01/27 10:58:17;;;;;;;8.50;6.58;;;;;;;1.28;64.11;97768.70;1747742;82;20939;-76
2021/01/27 11:00:45;;;;;;;8.05;6.17;;;;;;;1.26;64.55;97766.13;1727339;83;22027;-76
2021/01/27 11:03:17;;;;;;;7.72;6.92;;;;;;;1.24;65.14;97773.71;1747918;82;20995;-75
2021/01/27 11:05:46;;;;;;;8.13;7.12;;;;;;;1.12;65.89;97769.81;1748069;82;20960;-78
2021/01/27 11:08:30;;;;;;;9.43;8.45;;;;;;;1.03;66.75;97771.03;1727260;83;20940;-78
2021/01/27 11:10:59;;;;;;;8.60;6.97;;;;;;;0.95;67.42;97774.45;1748250;82;21011;-76
2021/01/27 11:13:32;;;;;;;8.83;7.92;;;;;;;0.88;68.86;97774.30;1749263;82;21329;-74
2021/01/27 11:16:00;;;;;;;8.70;7.80;;;;;;;0.81;69.32;97777.66;1729294;83;21003;-76
2021/01/27 11:18:28;;;;;;;7.85;7.12;;;;;;;0.82;69.55;97773.21;1748729;82;20920;-75
2021/01/27 11:20:58;;;;;;;9.63;8.73;;;;;;;0.81;69.90;97774.16;1747905;82;20947;-74
2021/01/27 11:23:28;;;;;;;12.98;8.88;;;;;;;0.81;69.97;97766.23;1727185;83;21016;-71
2021/01/27 11:25:56;;;;;;;9.68;8.00;;;;;;;0.82;70.07;97769.25;1748040;82;21383;-75
2021/01/27 11:28:24;;;;;;;10.25;9.23;;;;;;;0.84;69.83;97766.11;1747781;82;20971;-75
2021/01/27 11:30:53;;;;;;;10.15;9.08;;;;;;;0.83;69.78;97764.38;1727143;83;21003;-70
2021/01/27 11:33:24;;;;;;;10.32;9.28;;;;;;;0.84;70.03;97766.11;1747867;82;20940;-80
2021/01/27 11:35:55;;;;;;;11.48;10.25;;;;;;;0.84;70.14;97768.75;1747899;82;20952;-80
2021/01/27 11:38:23;;;;;;;11.40;10.05;;;;;;;0.81;70.07;97776.80;1727240;83;21712;-80
2021/01/27 11:40:51;;;;;;;11.33;9.18;;;;;;;0.81;70.10;97768.87;1731284;81;20987;-73
2021/01/27 11:43:18;;;;;;;10.70;9.60;;;;;;;0.81;69.90;97771.52;1758281;81;21455;-77
2021/01/27 11:45:48;;;;;;;10.65;8.75;;;;;;;0.83;69.89;97772.30;1739253;82;21338;-81
2021/01/27 11:48:19;;;;;;;10.70;9.50;;;;;;;0.80;69.38;97764.49;1753686;81;20947;-89
2021/01/27 11:50:56;;;;;;;9.25;8.33;;;;;;;0.84;69.38;97771.39;1738722;82;21361;-82
2021/01/27 11:53:24;;;;;;;10.93;9.73;;;;;;;0.85;69.24;97767.80;1758215;81;20944;-79
2021/01/27 11:55:52;;;;;;;11.73;9.83;;;;;;;0.87;69.22;97773.91;1739276;82;21000;-79
2021/01/27 11:58:20;;;;;;;9.58;8.20;;;;;;;0.90;69.23;97777.76;1758253;81;20978;-78
2021/01/27 12:00:47;;;;;;;9.28;8.38;;;;;;;0.89;69.16;97785.28;1739039;82;20924;-76
2021/01/27 12:03:16;;;;;;;10.68;9.58;;;;;;;0.91;69.10;97782.10;1731291;81;21209;-76
2021/01/27 12:05:44;;;;;;;11.22;9.35;;;;;;;0.90;69.29;97781.25;1739125;82;20972;-77
2021/01/27 12:08:12;;;;;;;12.50;9.13;;;;;;;0.91;69.63;97770.20;1758319;81;20951;-76
2021/01/27 12:10:41;;;;;;;9.33;8.38;;;;;;;0.90;69.85;97771.15;1739078;82;20972;-78
2021/01/27 12:13:09;;;;;;;13.28;10.48;;;;;;;0.92;70.12;97778.55;1758347;81;21463;-72
2021/01/27 12:15:37;;;;;;;10.70;9.60;;;;;;;0.90;70.45;97780.40;1758324;81;21226;-73
2021/01/27 12:18:09;;;;;;;9.70;8.70;;;;;;;0.91;70.49;97790.03;1739073;82;21369;-75
2021/01/27 12:20:37;;;;;;;9.90;8.90;;;;;;;0.90;70.80;97798.44;1758309;81;20923;-70
2021/01/27 12:23:06;;;;;;;10.70;9.05;;;;;;;0.88;71.05;97790.16;1758225;81;21496;-72
2021/01/27 12:25:37;;;;;;;11.63;10.20;;;;;;;0.88;71.21;97791.48;1739218;82;20901;-75
2021/01/27 12:28:05;;;;;;;12.10;10.63;;;;;;;0.86;71.24;97785.40;1739969;82;21376;-80
2021/01/27 12:30:34;;;;;;;10.03;8.18;;;;;;;0.86;71.17;97785.40;1739895;82;21345;-80
2021/01/27 12:33:02;;;;;;;9.35;8.03;;;;;;;0.85;71.11;97783.66;1758435;81;20959;-81
2021/01/27 12:35:31;;;;;;;12.53;10.78;;;;;;;0.87;70.99;97789.78;1739093;82;21004;-69
2021/01/27 12:38:00;;;;;;;63.30;45.30;;;;;;;0.88;71.04;97794.12;1739901;82;20987;-75
2021/01/27 12:40:28;;;;;;;18.30;14.13;;;;;;;0.89;71.36;97791.89;1739366;81;21377;-68
2021/01/27 12:42:56;;;;;;;16.90;13.75;;;;;;;0.93;71.73;97788.22;1726439;83;20948;-68
2021/01/27 12:45:26;;;;;;;18.12;13.40;;;;;;;0.96;71.19;97792.02;1734445;82;20936;-70
2021/01/27 12:47:54;;;;;;;9.88;8.85;;;;;;;0.98;70.96;97786.23;1726305;83;20953;-71
2021/01/27 12:50:22;;;;;;;11.60;10.25;;;;;;;0.99;70.32;97781.33;1746911;82;21066;-72
2021/01/27 12:52:51;;;;;;;14.60;11.38;;;;;;;0.99;70.32;97781.80;1746861;82;21207;-71
2021/01/27 12:55:19;;;;;;;12.68;11.03;;;;;;;0.97;70.25;97784.97;1726352;83;21380;-71
2021/01/27 12:57:47;;;;;;;13.90;10.43;;;;;;;0.98;70.12;97787.55;1726387;83;20937;-71
2021/01/27 13:00:23;;;;;;;9.38;8.45;;;;;;;0.99;70.25;97777.83;1726393;83;21445;-71
2021/01/27 13:02:53;;;;;;;11.75;9.45;;;;;;;1.01;69.95;97779.50;1747348;81;21011;-71
2021/01/27 13:05:24;;;;;;;11.20;9.70;;;;;;;1.02;69.67;97779.88;1747244;82;21199;-70
2021/01/27 13:07:51;;;;;;;11.15;8.85;;;;;;;1.01;69.38;97779.50;1726554;83;21429;-71
2021/01/27 13:10:19;;;;;;;10.30;9.25;;;;;;;1.02;69.25;97777.23;1747287;82;21031;-72
2021/01/27 13:12:50;;;;;;;12.10;10.20;;;;;;;0.99;69.04;97780.47;1747247;82;20948;-71
2021/01/27 13:15:19;;;;;;;10.75;9.65;;;;;;;0.97;69.07;97769.11;1726597;83;20945;-71
2021/01/27 13:17:49;;;;;;;12.00;10.80;;;;;;;0.95;69.06;97760.39;1747273;82;21196;-72
2021/01/27 13:20:20;;;;;;;10.32;8.73;;;;;;;0.92;69.15;97764.00;1747230;82;21468;-72
2021/01/27 13:22:47;;;;;;;11.38;10.05;;;;;;;0.91;69.54;97767.56;1726664;83;20929;-71
2021/01/27 13:25:19;;;;;;;12.98;10.63;;;;;;;0.87;69.68;97766.83;1726254;83;20932;-71
2021/01/27 13:27:52;;;;;;;11.90;10.00;;;;;;;0.83;69.97;97768.34;1724003;83;21051;-71
2021/01/27 13:30:23;;;;;;;13.45;11.05;;;;;;;0.78;70.51;97762.38;1734584;82;22298;-72
2021/01/27 13:32:51;;;;;;;15.13;11.35;;;;;;;0.74;70.98;97766.05;1726201;83;21532;-71
2021/01/27 13:35:22;;;;;;;16.00;12.68;;;;;;;0.71;71.24;97766.59;1726355;83;21076;-71
2021/01/27 13:37:51;;;;;;;11.33;9.55;;;;;;;0.64;71.59;97756.31;1734278;82;21016;-71
2021/01/27 13:40:19;;;;;;;14.70;12.33;;;;;;;0.62;71.70;97761.66;1747331;82;20923;-72
2021/01/27 13:42:48;;;;;;;14.65;12.80;;;;;;;0.55;71.81;97758.84;1746820;80;21923;-72
2021/01/27 13:45:16;;;;;;;15.25;13.22;;;;;;;0.49;71.97;97761.73;1726464;82;20909;-71
2021/01/27 13:47:44;;;;;;;14.33;12.82;;;;;;;0.45;72.28;97761.47;1726227;83;20940;-70
2021/01/27 13:50:13;;;;;;;16.82;12.33;;;;;;;0.42;72.58;97761.59;1726299;83;21600;-71
2021/01/27 13:52:42;;;;;;;15.95;12.07;;;;;;;0.39;72.65;97762.55;1734473;82;21452;-72
2021/01/27 13:55:12;;;;;;;15.40;11.97;;;;;;;0.36;72.92;97763.98;1726246;83;21233;-71
2021/01/27 13:57:41;;;;;;;13.55;10.45;;;;;;;0.32;72.90;97768.53;1726150;83;21028;-72
2021/01/27 14:00:12;;;;;;;13.53;11.15;;;;;;;0.30;73.14;97767.75;1734380;82;21011;-72
2021/01/27 14:02:39;;;;;;;14.53;12.95;;;;;;;0.26;73.34;97767.45;1726253;83;21075;-70
2021/01/27 14:05:09;;;;;;;13.65;12.25;;;;;;;0.22;73.51;97772.47;1726299;82;20889;-70
2021/01/27 14:07:38;;;;;;;13.60;12.18;;;;;;;0.21;73.67;97776.48;1734388;82;21372;-71
2021/01/27 14:10:07;;;;;;;15.50;13.05;;;;;;;0.17;73.79;97770.43;1726229;83;20908;-71
2021/01/27 14:12:35;;;;;;;15.72;13.28;;;;;;;0.14;73.92;97771.43;1726320;83;21396;-70
2021/01/27 14:15:03;;;;;;;15.10;13.50;;;;;;;0.12;73.87;97769.28;1734315;82;21000;-72
2021/01/27 14:17:33;;;;;;;16.17;13.58;;;;;;;0.10;73.88;97768.48;1726252;83;20988;-71
2021/01/27 14:20:01;;;;;;;17.00;13.05;;;;;;;0.09;73.74;97769.86;1726339;83;22038;-70
2021/01/27 14:22:32;;;;;;;15.63;13.93;;;;;;;0.05;73.71;97774.84;1734517;82;20999;-70
2021/01/27 14:25:00;;;;;;;18.05;14.70;;;;;;;0.02;73.72;97776.28;1726290;83;21031;-70
2021/01/27 14:27:27;;;;;;;15.23;12.13;;;;;;;-0.04;73.77;97777.38;1726204;83;20941;-71
2021/01/27 14:29:56;;;;;;;17.05;13.40;;;;;;;-0.09;73.71;97779.34;1734394;82;20916;-71
2021/01/27 14:32:25;;;;;;;19.35;14.45;;;;;;;-0.15;73.79;97772.95;1726199;83;21208;-71
2021/01/27 14:34:52;;;;;;;16.82;14.45;;;;;;;-0.21;73.91;97767.42;1726235;83;21028;-71
2021/01/27 14:37:21;;;;;;;14.30;11.88;;;;;;;-0.24;74.11;97775.45;1734371;82;21000;-70
2021/01/27 14:39:48;;;;;;;17.85;14.05;;;;;;;-0.30;74.34;97767.75;1726373;83;20949;-70
2021/01/27 14:42:15;;;;;;;19.85;16.90;;;;;;;-0.32;74.39;97772.23;1744830;81;20934;-70
2021/01/27 14:44:44;;;;;;;17.15;14.23;;;;;;;-0.34;74.65;97773.61;1763848;81;22121;-71
2021/01/27 14:47:12;;;;;;;16.52;14.73;;;;;;;-0.35;74.83;97771.02;1763847;81;20996;-70
2021/01/27 14:49:40;;;;;;;13.95;11.97;;;;;;;-0.37;74.96;97773.25;1763834;81;20951;-71
2021/01/27 14:52:07;;;;;;;10.78;9.65;;;;;;;-0.37;75.17;97772.40;1763786;81;20956;-70
2021/01/27 14:54:38;;;;;;;11.45;10.00;;;;;;;-0.39;75.12;97767.17;1763826;81;20940;-71
2021/01/27 14:57:06;;;;;;;11.48;10.28;;;;;;;-0.42;75.09;97762.00;1763837;81;21932;-70
2021/01/27 14:59:35;;;;;;;14.23;12.50;;;;;;;-0.45;75.20;97760.79;1763846;81;21500;-70